Aeroporto :
LOGIN :

Iscrizione | Disclaimer

   EN    FR    IT 

 










Sommario :    VFR   VFR Marginale   IFR   IFR Intensivo   IFR Molto Intensivo
Visibilità : 
Base nubi : 
>= 8 km
>= 3000ft
5 / 8 km
1000 / 3000 ft
1500m / 5 km
500 / 1000 ft
800 / 1500m
200 / 500 ft
< 800m
< 200 ft
Simboli :   Temporali  Nebbia  Neve Forte  Precipitazioni Forti  Vento > 20 kt
SIGMETs :   Varie  Temporali  Ghiacco  Turbolenza  Onda orograficha  Ceneri Vulcaniche






- Altitudine del aeroporto : 37 ft


EHVL - Vlieland Heliport

ULTIMO METAR :
  • 082125Z AUTO 25028KT 9999 SCT027 BKN031 BKN039 09/03 Q0991 BLU

METARs OBSOLETI :
  • 082055Z AUTO 25028KT 9999 FEW031 09/03 Q0991 BLU
  • 082025Z AUTO 25031KT 9999 FEW067 SCT083 09/04 Q0991 RERA BLU
  • 082005Z AUTO 25030KT 9999 FEW029 SCT090 BKN100 09/04 Q0991 BLU
  • 081959Z AUTO 25029KT 9000 RA FEW029 SCT036 BKN048 09/05 Q0991 BLU
  • 081955Z AUTO 25030KT 9999 FEW029 SCT037 BKN050 09/04 Q0991 BLU
  • 081925Z AUTO 24031KT 9999 SCT030 BKN035 BKN042 09/05 Q0991 BLU
  • 081855Z AUTO 24029KT 9999 FEW037 SCT041 BKN057 09/04 Q0992 BLU

Previsioni scadute.



MetMap, La meteo Aeronautica in un colpo d'occhio ! - Copyright ORBIFLY Dicembre 2007 - Disclaimer

ORBIFLY MET'MAP TEAM :

Programmazione e sviluppo : Alexandra Zaïnal
Concezione : Baudouin d'Aumeries
Aiuto per la programmazione : Marc-Olivier Méhu
Supporto tecnico e logistico : Manuel Goepfert
Aiuto per la traduzione : Arnaldo La Scala

Contatto : metmap@orbifly.com




FONTI E CREDITI :

   NOAA